LIRP Airport Information

Runway Information
Runway 04L Length 9160 ft width 141 ft
Elevation 2 ft Threshold 979 ft Heading 37
Runway 22R Length 9160 ft Width 141 ft
Elevation 6 ft Threshold 0 ft Heading 217
Runway 04R Length 9820 ft width 148 ft
Elevation 3 ft Threshold 490 ft Heading 37
Runway 22L Length 9820 ft Width 148 ft
Elevation 6 ft Threshold 843 ft Heading 217
Airport Frequencies
Type APP Name APP Frequency 122.1 MHZ
Type GND Name GND Frequency 121.6 MHZ
Type TWR Name TWR Frequency 119.1 MHZ
Airport Navaids
Type TACAN Name Pisa Frequency 108300 KHZ
Type VOR-DME Name Pisa Frequency 112100 KHZ
Type NDB Name Pisa Frequency 379 KHZ
Airport Weather Information & NOTAM
ADDS - METARS form results

(1312 UTC 16 April 2021)
Data provider http://aviationweather.gov/metar/data/
 
METAR text: LIRP 161245Z 10009KT 9999 SCT080 16/00 Q1015 NOSIG
Conditions at: LIRP (PISA (CIV/IT-AFB, IT) observed 1245 UTC 16 April 2021
Temperature: 16.0°C (61°F)
Dewpoint: 0.0°C (32°F) [RH = 34%]
Pressure (altimeter): 29.97 inches Hg (1015.0 mb)
Winds: from the E (100 degrees) at 10 MPH (9 knots; 4.6 m/s)
Visibility: 6 or more miles (10+ km)
Ceiling: at least 12,000 feet AGL
Clouds: scattered clouds at 8000 feet AGL
Weather: no significant weather observed at this time

METAR text: LIRP 161215Z 10008KT 9999 SCT080 16/01 Q1015 NOSIG
Conditions at: LIRP (PISA (CIV/IT-AFB, IT) observed 1215 UTC 16 April 2021
Temperature: 16.0°C (61°F)
Dewpoint: 1.0°C (34°F) [RH = 36%]
Pressure (altimeter): 29.97 inches Hg (1015.0 mb)
Winds: from the E (100 degrees) at 9 MPH (8 knots; 4.1 m/s)
Visibility: 6 or more miles (10+ km)
Ceiling: at least 12,000 feet AGL
Clouds: scattered clouds at 8000 feet AGL
Weather: no significant weather observed at this time

Forecast for: LIRP (PISA (CIV/IT-AFB, IT)
Text: TAF LIRP 161100Z 1612/1712 11012KT 9999 SCT070
Forecast period: 1200 UTC 16 April 2021 to 1200 UTC 17 April 2021
Forecast type: FROM: standard forecast or significant change
Winds: from the ESE (110 degrees) at 14 MPH (12 knots; 6.2 m/s)
Visibility: 6 or more miles (10+ km)
Ceiling: at least 12,000 feet AGL
Clouds: scattered clouds at 7000 feet AGL
Weather: no significant weather forecast for this period